createdAt,value
2019-05-05T00:01:01.633Z,-1.46
2019-05-05T00:03:29.657Z,-1.53
2019-05-05T00:05:57.697Z,-1.61
2019-05-05T00:08:24.560Z,-1.70
2019-05-05T00:11:09.464Z,-1.78
2019-05-05T00:13:40.522Z,-1.83
2019-05-05T00:16:24.995Z,-1.89
2019-05-05T00:18:54.284Z,-1.96
2019-05-05T00:21:20.668Z,-2.04
2019-05-05T00:23:46.913Z,-2.15
2019-05-05T00:26:14.952Z,-2.26
2019-05-05T00:28:41.275Z,-2.36
2019-05-05T00:31:07.505Z,-2.45
2019-05-05T00:33:34.353Z,-2.50
2019-05-05T00:36:00.813Z,-2.53
2019-05-05T00:38:27.070Z,-2.59
2019-05-05T00:40:54.986Z,-2.67
2019-05-05T00:43:21.424Z,-2.74
2019-05-05T00:45:49.468Z,-2.82
2019-05-05T00:48:17.518Z,-2.90
2019-05-05T00:50:44.971Z,-2.97
2019-05-05T00:53:11.396Z,-3.02
2019-05-05T00:55:37.623Z,-3.07
2019-05-05T00:58:05.277Z,-3.16
2019-05-05T01:00:34.926Z,-3.23
2019-05-05T01:03:01.274Z,-3.33
2019-05-05T01:05:29.324Z,-3.38
2019-05-05T01:07:55.582Z,-3.41
2019-05-05T01:10:22.043Z,-3.43
2019-05-05T01:12:48.270Z,-3.46
2019-05-05T01:15:15.129Z,-3.48
2019-05-05T01:17:41.353Z,-3.56
2019-05-05T01:20:08.922Z,-5.42
2019-05-05T01:22:35.134Z,-4.33
2019-05-05T01:25:01.397Z,-3.79
2019-05-05T01:27:27.704Z,-3.82
2019-05-05T01:29:54.575Z,-3.86
2019-05-05T01:32:24.677Z,-3.92
2019-05-05T01:34:50.953Z,-3.97
2019-05-05T01:37:19.299Z,-4.02
2019-05-05T01:39:59.380Z,-4.03
2019-05-05T01:42:25.628Z,-4.06
2019-05-05T01:44:51.847Z,-4.14
2019-05-05T01:47:18.083Z,-4.26
2019-05-05T01:49:45.325Z,-4.35
2019-05-05T01:52:11.773Z,-4.34
2019-05-05T01:54:38.002Z,-4.31
2019-05-05T01:57:05.477Z,-4.32
2019-05-05T01:59:32.282Z,-4.33
2019-05-05T02:01:58.534Z,-4.39
2019-05-05T02:04:25.166Z,-4.47
2019-05-05T02:06:51.512Z,-4.53
2019-05-05T02:09:17.747Z,-4.53
2019-05-05T02:11:45.264Z,-4.54
2019-05-05T02:14:11.628Z,-4.55
2019-05-05T02:16:37.848Z,-4.58
2019-05-05T02:19:05.032Z,-4.61
2019-05-05T02:21:31.525Z,-4.63
2019-05-05T02:23:57.767Z,-4.70
2019-05-05T02:26:24.588Z,-4.74
2019-05-05T02:28:58.635Z,-4.77
2019-05-05T02:31:26.667Z,-4.79
2019-05-05T02:33:52.913Z,-4.80
2019-05-05T02:36:19.161Z,-4.78
2019-05-05T02:38:46.464Z,-4.80
2019-05-05T02:41:15.488Z,-4.79
2019-05-05T02:43:44.814Z,-4.79
2019-05-05T02:46:35.443Z,-4.80
2019-05-05T02:49:05.432Z,-4.80
2019-05-05T02:51:31.202Z,-4.81
2019-05-05T02:53:59.752Z,-4.83
2019-05-05T02:56:40.651Z,-4.82
2019-05-05T02:59:09.415Z,-4.79
2019-05-05T03:01:44.640Z,-4.77
2019-05-05T03:04:13.957Z,-4.76
2019-05-05T03:09:13.821Z,-4.72
2019-05-05T03:11:43.675Z,-4.70
2019-05-05T03:14:11.768Z,-4.66
2019-05-05T03:16:38.807Z,-4.61
2019-05-05T03:19:07.153Z,-4.55
2019-05-05T03:21:33.615Z,-4.51
2019-05-05T03:23:59.831Z,-4.46
2019-05-05T03:26:26.276Z,-4.37
2019-05-05T03:28:54.525Z,-4.32
2019-05-05T03:31:22.068Z,-4.26
2019-05-05T03:33:48.891Z,-4.21
2019-05-05T03:36:16.354Z,-4.14
2019-05-05T03:38:44.441Z,-4.07
2019-05-05T03:41:13.611Z,-4.00
2019-05-05T03:44:00.176Z,-3.96
2019-05-05T03:46:26.722Z,-3.91
2019-05-05T03:48:54.131Z,-3.81
2019-05-05T03:51:21.280Z,-3.71
2019-05-05T03:53:47.862Z,-3.62
2019-05-05T03:56:14.158Z,-3.49
2019-05-05T03:58:40.374Z,-3.38
2019-05-05T04:01:28.743Z,-3.28
2019-05-05T04:03:56.769Z,-3.19
2019-05-05T04:06:36.363Z,-3.09
2019-05-05T04:09:04.510Z,-2.99
2019-05-05T04:11:30.755Z,-2.89
2019-05-05T04:13:57.701Z,-2.76
2019-05-05T04:16:25.728Z,-2.61
2019-05-05T04:18:56.293Z,-2.41
2019-05-05T04:21:31.266Z,-2.20
2019-05-05T04:23:50.665Z,-1.85
2019-05-05T04:26:16.900Z,-1.50
2019-05-05T04:28:43.669Z,-1.14
2019-05-05T04:31:09.981Z,-0.75
2019-05-05T04:33:36.224Z,-0.26
2019-05-05T04:36:03.902Z,0.22
2019-05-05T04:38:30.292Z,0.70
2019-05-05T04:40:56.516Z,1.17
2019-05-05T04:43:24.638Z,1.66
2019-05-05T04:45:50.941Z,2.16
2019-05-05T04:48:21.541Z,2.52
2019-05-05T04:50:49.570Z,2.91
2019-05-05T04:53:17.611Z,3.29
2019-05-05T04:55:44.311Z,3.71
2019-05-05T04:58:10.588Z,4.20
2019-05-05T05:00:36.830Z,4.61
2019-05-05T05:03:23.861Z,5.01
2019-05-05T05:05:53.614Z,5.34
2019-05-05T05:08:20.103Z,5.79
2019-05-05T05:10:46.267Z,6.10
2019-05-05T05:13:13.871Z,6.37
2019-05-05T05:15:40.350Z,6.63
2019-05-05T05:18:08.383Z,6.83
2019-05-05T05:20:34.631Z,6.96
2019-05-05T05:23:00.867Z,7.07
2019-05-05T05:25:27.120Z,7.31
2019-05-05T05:27:53.727Z,7.59
2019-05-05T05:30:20.104Z,7.91
2019-05-05T05:32:46.339Z,8.35
2019-05-05T05:35:14.100Z,8.48
2019-05-05T05:37:40.620Z,8.82
2019-05-05T05:40:11.445Z,8.77
2019-05-05T05:42:37.675Z,8.80
2019-05-05T05:45:14.714Z,8.46
2019-05-05T05:47:54.727Z,8.51
2019-05-05T05:50:25.557Z,8.67
2019-05-05T05:52:53.942Z,8.59
2019-05-05T05:55:19.914Z,8.47
2019-05-05T05:57:46.162Z,8.34
2019-05-05T06:00:14.533Z,8.02
2019-05-05T06:02:40.957Z,7.99
2019-05-05T06:05:07.197Z,8.65
2019-05-05T06:07:33.660Z,9.32
2019-05-05T06:09:59.994Z,9.74
2019-05-05T06:12:26.249Z,9.92
2019-05-05T06:14:53.679Z,9.78
2019-05-05T06:17:20.026Z,9.10
2019-05-05T06:19:46.252Z,8.59
2019-05-05T06:22:15.180Z,8.42
2019-05-05T06:24:40.543Z,8.41
2019-05-05T06:27:06.787Z,8.42
2019-05-05T06:29:34.554Z,8.56
2019-05-05T06:32:00.993Z,8.67
2019-05-05T06:34:27.234Z,8.63
2019-05-05T06:36:53.742Z,9.27
2019-05-05T06:39:20.100Z,9.97
2019-05-05T06:41:48.138Z,10.56
2019-05-05T06:44:24.940Z,10.93
2019-05-05T06:47:04.461Z,10.84
2019-05-05T06:49:31.328Z,10.70
2019-05-05T06:51:57.730Z,11.07
2019-05-05T06:54:24.221Z,11.48
2019-05-05T06:56:50.513Z,11.62
2019-05-05T06:59:16.761Z,12.11
2019-05-05T07:01:44.282Z,12.51
2019-05-05T07:04:10.644Z,12.78
2019-05-05T07:06:36.767Z,13.05
2019-05-05T07:09:05.466Z,12.78
2019-05-05T07:11:31.842Z,12.44
2019-05-05T07:13:57.992Z,12.33
2019-05-05T07:16:24.486Z,11.87
2019-05-05T07:18:50.788Z,12.06
2019-05-05T07:21:17.033Z,12.91
2019-05-05T07:23:44.580Z,12.23
2019-05-05T07:26:11.017Z,12.37
2019-05-05T07:28:37.264Z,12.78
2019-05-05T07:31:04.599Z,12.38
2019-05-05T07:33:30.947Z,10.69
2019-05-05T07:36:15.772Z,9.92
2019-05-05T07:38:44.086Z,9.42
2019-05-05T07:41:10.137Z,10.03
2019-05-05T07:43:36.373Z,10.33
2019-05-05T07:46:04.435Z,11.37
2019-05-05T07:48:30.748Z,12.33
2019-05-05T07:51:01.884Z,12.52
2019-05-05T07:53:25.051Z,11.99
2019-05-05T07:55:51.296Z,10.64
2019-05-05T07:58:17.528Z,10.80
2019-05-05T08:00:43.824Z,11.69
2019-05-05T08:03:10.118Z,11.81
2019-05-05T08:05:36.344Z,11.78
2019-05-05T08:08:04.431Z,12.01
2019-05-05T08:10:30.648Z,12.43
2019-05-05T08:12:56.895Z,12.24
2019-05-05T08:15:24.633Z,11.77
2019-05-05T08:18:01.432Z,11.28
2019-05-05T08:20:29.491Z,11.48
2019-05-05T08:22:55.718Z,10.95
2019-05-05T08:25:40.388Z,10.48
2019-05-05T08:28:17.393Z,10.31
2019-05-05T08:30:45.420Z,10.28
2019-05-05T08:33:13.919Z,11.20
2019-05-05T08:35:39.801Z,11.51
2019-05-05T08:38:06.045Z,11.59
2019-05-05T08:40:34.392Z,12.39
2019-05-05T08:43:00.310Z,12.44
2019-05-05T08:45:26.829Z,12.68
2019-05-05T08:47:54.189Z,12.96
2019-05-05T08:50:23.886Z,13.60
2019-05-05T08:52:48.585Z,13.68
2019-05-05T08:55:14.831Z,13.68
2019-05-05T08:57:41.068Z,13.50
2019-05-05T09:00:08.216Z,13.79
2019-05-05T09:02:36.125Z,14.38
2019-05-05T09:05:06.117Z,14.71
2019-05-05T09:07:33.612Z,13.80
2019-05-05T09:10:00.202Z,13.86
2019-05-05T09:12:26.341Z,14.24
2019-05-05T09:14:53.844Z,14.03
2019-05-05T09:17:20.274Z,14.03
2019-05-05T09:19:46.522Z,13.86
2019-05-05T09:22:14.008Z,14.09
2019-05-05T09:24:44.728Z,13.62
2019-05-05T09:27:26.559Z,13.68
2019-05-05T09:29:54.296Z,12.85
2019-05-05T09:32:20.638Z,11.51
2019-05-05T09:34:46.898Z,10.30
2019-05-05T09:37:14.406Z,9.71
2019-05-05T09:39:40.861Z,9.48
2019-05-05T09:42:07.123Z,8.69
2019-05-05T09:44:34.638Z,8.56
2019-05-05T09:47:01.192Z,8.66
2019-05-05T09:49:27.461Z,8.90
2019-05-05T09:51:54.505Z,9.00
2019-05-05T09:54:20.950Z,9.80
2019-05-05T09:56:47.195Z,10.53
2019-05-05T09:59:13.554Z,11.42
2019-05-05T10:01:39.969Z,11.81
2019-05-05T10:04:09.877Z,12.17
2019-05-05T10:06:37.138Z,12.17
2019-05-05T10:09:08.435Z,12.46
2019-05-05T10:11:35.496Z,12.82
2019-05-05T10:14:03.879Z,12.43
2019-05-05T10:16:29.977Z,11.56
2019-05-05T10:18:56.204Z,11.42
2019-05-05T10:21:24.431Z,11.43
2019-05-05T10:23:54.042Z,11.32
2019-05-05T10:26:20.349Z,11.08
2019-05-05T10:28:46.587Z,10.83
2019-05-05T10:31:13.844Z,10.71
2019-05-05T10:33:41.979Z,10.47
2019-05-05T10:36:08.208Z,11.35
2019-05-05T10:38:36.266Z,11.97
2019-05-05T10:41:04.248Z,12.80
2019-05-05T10:43:30.653Z,13.22
2019-05-05T10:45:56.889Z,12.33
2019-05-05T10:48:23.630Z,11.02
2019-05-05T10:50:49.987Z,12.25
2019-05-05T10:53:16.232Z,12.81
2019-05-05T10:55:44.815Z,13.29
2019-05-05T10:58:10.654Z,12.78
2019-05-05T11:00:44.378Z,12.86
2019-05-05T11:03:11.359Z,13.11
2019-05-05T11:05:37.607Z,13.19
2019-05-05T11:08:04.421Z,12.65
2019-05-05T11:10:33.919Z,11.57
2019-05-05T11:13:00.346Z,11.75
2019-05-05T11:15:26.584Z,11.06
2019-05-05T11:17:54.244Z,10.57
2019-05-05T11:20:20.700Z,10.41
2019-05-05T11:22:46.936Z,10.13
2019-05-05T11:25:13.843Z,10.02
2019-05-05T11:27:40.220Z,9.92
2019-05-05T11:30:20.858Z,9.72
2019-05-05T11:33:05.737Z,9.43
2019-05-05T11:35:50.160Z,9.09
2019-05-05T11:38:16.391Z,9.12
2019-05-05T11:40:43.930Z,9.05
2019-05-05T11:43:10.371Z,9.02
2019-05-05T11:45:36.627Z,8.62
2019-05-05T11:48:02.972Z,8.37
2019-05-05T11:50:29.219Z,8.24
2019-05-05T11:52:55.466Z,8.29
2019-05-05T11:55:21.723Z,8.40
2019-05-05T11:57:47.939Z,8.28
2019-05-05T12:00:14.372Z,8.26
2019-05-05T12:02:41.186Z,8.39
2019-05-05T12:05:07.525Z,8.61
2019-05-05T12:07:34.289Z,8.35
2019-05-05T12:10:00.723Z,8.16
2019-05-05T12:12:27.004Z,8.16
2019-05-05T12:14:54.074Z,8.22
2019-05-05T12:17:23.839Z,7.99
2019-05-05T12:19:50.232Z,8.26
2019-05-05T12:22:16.474Z,8.49
2019-05-05T12:24:44.532Z,8.70
2019-05-05T12:27:15.118Z,9.32
2019-05-05T12:29:44.083Z,9.50
2019-05-05T12:32:12.416Z,10.33
2019-05-05T12:34:38.257Z,10.29
2019-05-05T12:37:05.317Z,10.58
2019-05-05T12:39:33.588Z,11.15
2019-05-05T12:41:59.889Z,11.48
2019-05-05T12:44:27.931Z,11.89
2019-05-05T12:47:01.509Z,11.75
2019-05-05T12:49:27.753Z,11.69
2019-05-05T12:51:54.183Z,11.88
2019-05-05T12:54:20.531Z,11.88
2019-05-05T12:56:46.776Z,12.24
2019-05-05T12:59:14.837Z,12.19
2019-05-05T13:01:44.122Z,11.68
2019-05-05T13:04:10.527Z,11.68
2019-05-05T13:06:37.272Z,11.72
2019-05-05T13:09:05.617Z,11.36
2019-05-05T13:11:31.872Z,11.28
2019-05-05T13:13:58.101Z,11.39
2019-05-05T13:16:25.095Z,11.98
2019-05-05T13:18:53.454Z,12.19
2019-05-05T13:21:24.059Z,11.70
2019-05-05T13:23:53.858Z,11.31
2019-05-05T13:26:27.754Z,11.12
2019-05-05T13:28:54.293Z,10.31
2019-05-05T13:31:21.840Z,10.17
2019-05-05T13:33:48.288Z,10.14
2019-05-05T13:36:14.523Z,10.16
2019-05-05T13:38:40.753Z,9.92
2019-05-05T13:41:06.996Z,9.53
2019-05-05T13:43:34.258Z,9.15
2019-05-05T13:46:05.327Z,9.03
2019-05-05T13:48:33.358Z,9.18
2019-05-05T13:51:01.531Z,9.25
2019-05-05T13:53:27.780Z,9.19
2019-05-05T13:55:58.382Z,9.82
2019-05-05T13:58:22.162Z,10.20
2019-05-05T14:00:48.399Z,10.04
2019-05-05T14:03:14.643Z,10.29
2019-05-05T14:05:40.882Z,10.53
2019-05-05T14:08:07.134Z,10.39
2019-05-05T14:10:33.360Z,10.05
2019-05-05T14:12:59.510Z,10.13
2019-05-05T14:15:25.737Z,9.77
2019-05-05T14:17:54.264Z,9.63
2019-05-05T14:20:20.162Z,9.38
2019-05-05T14:22:46.397Z,9.20
2019-05-05T14:25:15.649Z,9.04
2019-05-05T14:27:43.646Z,8.80
2019-05-05T14:30:24.489Z,8.85
2019-05-05T14:32:50.621Z,8.96
2019-05-05T14:35:34.303Z,9.15
2019-05-05T14:38:11.237Z,9.00
2019-05-05T14:40:37.485Z,8.59
2019-05-05T14:43:04.503Z,8.27
2019-05-05T14:45:30.860Z,8.01
2019-05-05T14:47:57.425Z,7.76
2019-05-05T14:50:24.189Z,7.51
2019-05-05T14:52:50.508Z,7.39
2019-05-05T14:55:17.052Z,6.86
2019-05-05T14:57:44.089Z,7.17
2019-05-05T15:00:13.790Z,7.08
2019-05-05T15:02:40.085Z,6.88
2019-05-05T15:05:24.671Z,6.78
2019-05-05T15:07:53.676Z,6.72
2019-05-05T15:10:38.196Z,6.63
2019-05-05T15:13:06.253Z,6.59
2019-05-05T15:15:32.475Z,6.57
2019-05-05T15:17:58.716Z,6.53
2019-05-05T15:20:24.981Z,6.50
2019-05-05T15:22:51.123Z,6.59
2019-05-05T15:25:17.253Z,6.65
2019-05-05T15:27:45.091Z,6.69
2019-05-05T15:30:12.067Z,6.61
2019-05-05T15:32:38.302Z,6.63
2019-05-05T15:35:05.434Z,6.72
2019-05-05T15:37:31.683Z,6.79
2019-05-05T15:39:57.914Z,6.36
2019-05-05T15:42:24.077Z,6.81
2019-05-05T15:44:50.307Z,6.70
2019-05-05T15:47:16.554Z,6.61
2019-05-05T15:49:44.094Z,6.51
2019-05-05T15:52:10.456Z,6.34
2019-05-05T15:54:36.997Z,6.23
2019-05-05T15:57:07.840Z,6.16
2019-05-05T15:59:31.377Z,6.17
2019-05-05T16:01:57.625Z,6.14
2019-05-05T16:04:23.881Z,6.04
2019-05-05T16:06:50.038Z,5.98
2019-05-05T16:09:16.288Z,5.93
2019-05-05T16:11:44.426Z,5.89
2019-05-05T16:14:10.705Z,5.79
2019-05-05T16:16:55.630Z,5.68
2019-05-05T16:19:29.347Z,5.65
2019-05-05T16:22:00.405Z,5.55
2019-05-05T16:24:33.611Z,5.50
2019-05-05T16:27:00.239Z,5.43
2019-05-05T16:29:26.496Z,5.38
2019-05-05T16:31:53.641Z,5.33
2019-05-05T16:34:20.097Z,5.28
2019-05-05T16:36:46.219Z,5.20
2019-05-05T16:39:13.833Z,5.16
2019-05-05T16:41:40.510Z,5.10
2019-05-05T16:44:06.664Z,5.08
2019-05-05T16:46:34.143Z,5.08
2019-05-05T16:49:00.565Z,5.07
2019-05-05T16:51:28.606Z,4.96
2019-05-05T16:53:56.614Z,4.09
2019-05-05T16:56:24.244Z,4.86
2019-05-05T16:58:50.657Z,4.82
2019-05-05T17:01:16.904Z,4.79
2019-05-05T17:03:45.360Z,4.75
2019-05-05T17:06:11.296Z,4.74
2019-05-05T17:08:37.534Z,4.68
2019-05-05T17:11:03.803Z,4.63
2019-05-05T17:13:40.849Z,4.53
2019-05-05T17:16:08.911Z,4.51
2019-05-05T17:18:44.634Z,4.47
2019-05-05T17:21:13.466Z,4.43
2019-05-05T17:23:39.617Z,4.39
2019-05-05T17:26:05.908Z,4.32
2019-05-05T17:28:33.539Z,4.28
2019-05-05T17:31:00.696Z,4.22
2019-05-05T17:33:27.024Z,4.13
2019-05-05T17:35:53.941Z,4.09
2019-05-05T17:38:20.301Z,4.07
2019-05-05T17:40:48.345Z,4.05
2019-05-05T17:43:24.957Z,4.06
2019-05-05T17:45:57.901Z,4.07
2019-05-05T17:48:25.962Z,4.06
2019-05-05T17:51:05.767Z,4.06
2019-05-05T17:53:40.088Z,4.06
2019-05-05T17:56:08.137Z,4.01
2019-05-05T17:58:34.388Z,3.98
2019-05-05T18:01:00.812Z,3.92
2019-05-05T18:03:27.138Z,3.87
2019-05-05T18:06:05.892Z,3.78
2019-05-05T18:08:44.573Z,3.72
2019-05-05T18:11:13.648Z,3.64
2019-05-05T18:13:43.483Z,3.59
2019-05-05T18:16:09.860Z,3.53
2019-05-05T18:18:36.085Z,3.45
2019-05-05T18:21:02.331Z,3.38
2019-05-05T18:23:28.562Z,3.32
2019-05-05T18:25:55.089Z,3.20
2019-05-05T18:28:21.391Z,3.18
2019-05-05T18:30:47.658Z,3.16
2019-05-05T18:33:14.011Z,3.13
2019-05-05T18:35:40.348Z,3.11
2019-05-05T18:38:06.666Z,3.09
2019-05-05T18:40:33.748Z,3.04
2019-05-05T18:43:03.909Z,2.98
2019-05-05T18:45:30.129Z,2.91
2019-05-05T18:47:56.379Z,2.84
2019-05-05T18:50:24.319Z,2.77
2019-05-05T18:52:50.766Z,2.68
2019-05-05T18:55:16.997Z,2.64
2019-05-05T18:57:43.535Z,2.59
2019-05-05T19:00:13.864Z,2.57
2019-05-05T19:02:44.118Z,2.52
2019-05-05T19:05:12.807Z,2.48
2019-05-05T19:07:52.998Z,2.43
2019-05-05T19:10:09.201Z,2.40
2019-05-05T19:12:35.470Z,2.38
2019-05-05T19:15:01.701Z,2.34
2019-05-05T19:17:28.881Z,2.30
2019-05-05T19:19:56.978Z,2.25
2019-05-05T19:22:23.206Z,2.21
2019-05-05T19:24:49.442Z,2.16
2019-05-05T19:27:15.669Z,2.12
2019-05-05T19:29:44.178Z,2.09
2019-05-05T19:32:10.060Z,2.05
2019-05-05T19:34:36.299Z,2.00
2019-05-05T19:37:03.954Z,1.96
2019-05-05T19:39:30.317Z,1.91
2019-05-05T19:41:56.551Z,1.85
2019-05-05T19:44:25.844Z,1.80
2019-05-05T19:46:54.698Z,1.75
2019-05-05T19:49:20.843Z,1.71
2019-05-05T19:51:47.567Z,1.68
2019-05-05T19:54:14.430Z,1.63
2019-05-05T19:56:40.856Z,1.54
2019-05-05T19:59:07.097Z,1.49
2019-05-05T20:01:37.578Z,1.44
2019-05-05T20:04:01.582Z,1.44
2019-05-05T20:06:27.824Z,0.95
2019-05-05T20:08:54.039Z,1.44
2019-05-05T20:11:20.289Z,1.43
2019-05-05T20:13:46.539Z,1.44
2019-05-05T20:16:20.230Z,1.44
2019-05-05T20:18:46.468Z,1.45
2019-05-05T20:21:14.515Z,1.45
2019-05-05T20:23:40.855Z,1.43
2019-05-05T20:26:07.093Z,1.44
2019-05-05T20:28:33.932Z,1.45
2019-05-05T20:31:00.260Z,1.46
2019-05-05T20:33:40.159Z,1.45
2019-05-05T20:36:08.198Z,1.45
2019-05-05T20:38:36.246Z,1.44
2019-05-05T20:41:10.051Z,1.41
2019-05-05T20:43:36.297Z,1.36
2019-05-05T20:46:04.406Z,1.33
2019-05-05T20:48:30.689Z,1.29
2019-05-05T20:50:56.940Z,1.26
2019-05-05T20:53:24.619Z,1.26
2019-05-05T20:55:50.928Z,1.26
2019-05-05T20:58:17.184Z,1.26
2019-05-05T21:00:44.231Z,1.24
2019-05-05T21:03:10.567Z,1.23
2019-05-05T21:05:36.805Z,1.21
2019-05-05T21:08:04.855Z,1.19
2019-05-05T21:10:31.194Z,1.19
2019-05-05T21:12:57.431Z,1.19
2019-05-05T21:15:24.680Z,1.20
2019-05-05T21:17:51.123Z,1.20
2019-05-05T21:20:17.359Z,1.19
2019-05-05T21:22:51.309Z,1.17
2019-05-05T21:25:25.114Z,1.16
2019-05-05T21:27:51.347Z,1.17
2019-05-05T21:30:17.693Z,1.17
2019-05-05T21:32:43.932Z,1.19
2019-05-05T21:35:10.181Z,1.19
2019-05-05T21:37:36.419Z,1.22
2019-05-05T21:40:04.634Z,1.23
2019-05-05T21:42:31.001Z,1.24
2019-05-05T21:44:57.261Z,1.25
2019-05-05T21:47:24.063Z,1.27
2019-05-05T21:49:50.432Z,1.26
2019-05-05T21:52:34.584Z,1.26
2019-05-05T21:55:08.498Z,1.27
2019-05-05T21:57:51.744Z,1.24
2019-05-05T22:00:24.070Z,1.24
2019-05-05T22:02:50.535Z,1.23
2019-05-05T22:05:16.769Z,1.24
2019-05-05T22:07:43.019Z,1.24
2019-05-05T22:10:09.263Z,1.26
2019-05-05T22:12:36.305Z,1.28
2019-05-05T22:15:04.952Z,1.31
2019-05-05T22:17:31.225Z,1.32
2019-05-05T22:19:59.312Z,1.34
2019-05-05T22:22:27.354Z,1.36
2019-05-05T22:24:54.093Z,1.39
2019-05-05T22:27:20.582Z,1.40
2019-05-05T22:29:46.836Z,1.43
2019-05-05T22:32:14.060Z,1.45
2019-05-05T22:34:40.459Z,1.46
2019-05-05T22:37:09.535Z,1.49
2019-05-05T22:39:34.876Z,1.50
2019-05-05T22:42:01.128Z,1.52
2019-05-05T22:44:27.423Z,1.52
2019-05-05T22:46:53.898Z,1.53
2019-05-05T22:49:20.243Z,1.52
2019-05-05T22:51:46.489Z,1.52
2019-05-05T22:54:14.732Z,1.53
2019-05-05T22:56:40.906Z,1.54
2019-05-05T22:59:07.176Z,1.55
2019-05-05T23:01:33.536Z,1.56
2019-05-05T23:04:18.468Z,1.55
2019-05-05T23:06:46.522Z,1.56
2019-05-05T23:09:14.732Z,1.54
2019-05-05T23:11:41.253Z,1.50
2019-05-05T23:14:26.415Z,1.56
2019-05-05T23:16:54.470Z,1.60
2019-05-05T23:19:25.603Z,1.63
2019-05-05T23:21:57.772Z,1.63
2019-05-05T23:24:25.851Z,1.63
2019-05-05T23:26:54.594Z,1.64
2019-05-05T23:29:21.051Z,1.63
2019-05-05T23:31:47.313Z,1.64
2019-05-05T23:34:14.733Z,1.66
2019-05-05T23:36:41.226Z,1.67
2019-05-05T23:39:07.471Z,1.69
2019-05-05T23:41:34.941Z,1.69
2019-05-05T23:44:03.549Z,1.72
2019-05-05T23:46:29.668Z,1.72
2019-05-05T23:48:55.911Z,1.74
2019-05-05T23:51:24.065Z,1.76
2019-05-05T23:53:50.324Z,1.77
2019-05-05T23:56:16.589Z,1.80
2019-05-05T23:58:44.165Z,1.80
